createdAt,value
2022-08-03T00:02:31.625Z,2.60
2022-08-03T00:07:34.462Z,7.40
2022-08-03T00:12:38.483Z,3.15
2022-08-03T00:17:52.978Z,5.18
2022-08-03T00:22:56.540Z,3.83
2022-08-03T00:28:00.593Z,3.95
2022-08-03T00:33:03.911Z,5.20
2022-08-03T00:38:07.201Z,6.85
2022-08-03T00:43:11.591Z,5.85
2022-08-03T00:48:29.562Z,7.18
2022-08-03T00:53:37.123Z,5.90
2022-08-03T00:58:41.145Z,7.13
2022-08-03T01:03:43.981Z,4.93
2022-08-03T01:08:54.367Z,6.82
2022-08-03T01:14:18.732Z,9.82
2022-08-03T01:19:38.271Z,7.30
2022-08-03T01:24:51.605Z,10.63
2022-08-03T01:30:07.030Z,7.68
2022-08-03T01:35:13.247Z,7.43
2022-08-03T01:40:17.109Z,10.35
2022-08-03T01:45:22.651Z,12.07
2022-08-03T01:50:29.198Z,10.20
2022-08-03T01:55:33.917Z,8.55
2022-08-03T02:00:39.452Z,8.10
2022-08-03T02:05:44.255Z,9.70
2022-08-03T02:10:48.619Z,9.63
2022-08-03T02:15:54.272Z,8.55
2022-08-03T02:20:58.012Z,7.85
2022-08-03T02:26:04.834Z,13.55
2022-08-03T02:31:14.806Z,8.43
2022-08-03T02:36:21.309Z,10.48
2022-08-03T02:41:28.786Z,8.48
2022-08-03T02:46:37.747Z,8.02
2022-08-03T02:51:42.459Z,8.05
2022-08-03T02:56:47.511Z,7.72
2022-08-03T03:01:53.795Z,9.88
2022-08-03T03:06:57.552Z,11.20
2022-08-03T03:12:01.275Z,7.75
2022-08-03T03:17:09.049Z,11.18
2022-08-03T03:22:12.464Z,12.23
2022-08-03T03:27:16.574Z,9.98
2022-08-03T03:32:21.250Z,12.63
2022-08-03T03:37:24.000Z,9.25
2022-08-03T03:42:27.328Z,11.05
2022-08-03T03:47:32.727Z,10.10
2022-08-03T03:52:37.488Z,11.07
2022-08-03T03:57:40.181Z,9.07
2022-08-03T04:02:44.545Z,11.70
2022-08-03T04:08:14.452Z,10.77
2022-08-03T04:13:19.291Z,9.73
2022-08-03T04:18:24.563Z,10.15
2022-08-03T04:23:30.756Z,11.35
2022-08-03T04:28:34.772Z,9.25
2022-08-03T04:33:40.413Z,14.27
2022-08-03T04:38:55.189Z,9.63
2022-08-03T04:44:00.165Z,10.07
2022-08-03T04:49:05.373Z,12.30
2022-08-03T04:54:08.251Z,12.05
2022-08-03T04:59:11.685Z,10.77
2022-08-03T05:04:15.799Z,10.60
2022-08-03T05:09:39.587Z,8.50
2022-08-03T05:14:41.514Z,9.50
2022-08-03T05:19:45.535Z,5.93
2022-08-03T05:24:48.582Z,12.55
2022-08-03T05:29:51.982Z,8.23
2022-08-03T05:34:56.091Z,8.85
2022-08-03T05:39:58.840Z,10.60
2022-08-03T05:45:12.848Z,7.50
2022-08-03T05:50:18.510Z,8.88
2022-08-03T05:55:21.189Z,5.93
2022-08-03T06:00:24.173Z,7.22
2022-08-03T06:05:30.259Z,9.88
2022-08-03T06:10:37.278Z,9.77
2022-08-03T06:15:41.189Z,6.65
2022-08-03T06:20:45.374Z,7.35
2022-08-03T06:25:50.078Z,7.95
2022-08-03T06:30:52.743Z,4.60
2022-08-03T06:35:56.741Z,6.90
2022-08-03T06:40:59.647Z,5.20
2022-08-03T06:46:02.339Z,5.10
2022-08-03T06:51:06.816Z,8.15
2022-08-03T06:56:09.875Z,5.35
2022-08-03T07:01:12.781Z,5.53
2022-08-03T07:06:16.870Z,5.13
2022-08-03T07:11:19.564Z,6.40
2022-08-03T07:16:22.226Z,3.78
2022-08-03T07:21:26.256Z,5.35
2022-08-03T07:26:28.971Z,3.80
2022-08-03T07:31:34.333Z,2.65
2022-08-03T07:36:39.048Z,5.82
2022-08-03T07:41:41.704Z,6.40
2022-08-03T07:46:44.892Z,4.68
2022-08-03T07:52:10.115Z,3.28
2022-08-03T07:57:12.939Z,3.70
2022-08-03T08:02:15.851Z,4.32
2022-08-03T08:07:20.732Z,4.05
2022-08-03T08:12:23.470Z,6.03
2022-08-03T08:17:26.233Z,2.22
2022-08-03T08:22:31.489Z,2.10
2022-08-03T08:28:29.418Z,2.50
2022-08-03T08:32:57.642Z,2.70
2022-08-03T08:38:04.049Z,2.28
2022-08-03T08:43:10.530Z,2.92
2022-08-03T08:48:14.826Z,4.50
2022-08-03T08:53:22.778Z,2.80
2022-08-03T08:58:38.762Z,2.40
2022-08-03T09:03:42.338Z,7.05
2022-08-03T09:08:46.383Z,3.47
2022-08-03T09:13:49.583Z,3.88
2022-08-03T09:18:54.454Z,2.10
2022-08-03T09:24:04.137Z,5.22
2022-08-03T09:29:14.412Z,1.67
2022-08-03T09:34:19.527Z,4.03
2022-08-03T09:39:41.561Z,1.67
2022-08-03T09:44:50.224Z,4.43
2022-08-03T09:49:58.776Z,1.50
2022-08-03T09:55:04.035Z,3.03
2022-08-03T10:00:12.044Z,4.40
2022-08-03T10:05:17.661Z,4.70
2022-08-03T10:10:31.382Z,4.20
2022-08-03T10:16:23.662Z,4.53
2022-08-03T10:21:03.906Z,2.72
2022-08-03T10:26:09.171Z,3.70
2022-08-03T10:31:13.917Z,4.43
2022-08-03T10:36:17.732Z,1.83
2022-08-03T10:41:22.761Z,4.25
2022-08-03T10:46:26.987Z,5.40
2022-08-03T10:51:32.263Z,2.88
2022-08-03T10:57:13.724Z,2.58
2022-08-03T11:02:18.053Z,3.55
2022-08-03T11:07:23.663Z,3.13
2022-08-03T11:12:31.072Z,1.58
2022-08-03T11:17:46.548Z,2.50
2022-08-03T11:23:01.014Z,3.72
2022-08-03T11:28:28.919Z,1.50
2022-08-03T11:33:32.808Z,2.80
2022-08-03T11:38:35.746Z,4.57
2022-08-03T11:43:48.728Z,2.83
2022-08-03T11:48:52.462Z,5.50
2022-08-03T11:53:56.676Z,5.10
2022-08-03T11:59:19.866Z,1.77
2022-08-03T12:04:23.469Z,2.05
2022-08-03T12:09:26.179Z,3.97
2022-08-03T12:14:50.503Z,5.13
2022-08-03T12:19:53.191Z,1.30
2022-08-03T12:24:55.977Z,12.23
2022-08-03T12:30:01.805Z,3.05
2022-08-03T12:42:22.653Z,1.42
2022-08-03T12:47:44.670Z,6.22
2022-08-03T13:05:47.501Z,4.13
2022-08-03T14:21:15.056Z,4.38
2022-08-03T14:26:30.708Z,4.93
2022-08-03T14:32:09.965Z,2.80
2022-08-03T14:37:52.151Z,1.40
2022-08-03T14:44:02.001Z,2.90
2022-08-03T14:50:38.230Z,6.15
2022-08-03T14:55:38.751Z,2.30
2022-08-03T15:02:03.087Z,3.17
2022-08-03T15:20:00.986Z,3.95
2022-08-03T15:26:41.753Z,3.33
2022-08-03T15:38:12.391Z,3.80
2022-08-03T15:50:21.641Z,2.60
2022-08-03T15:55:51.596Z,6.22
2022-08-03T16:02:18.347Z,2.40
2022-08-03T16:14:32.239Z,2.95
2022-08-03T16:19:46.558Z,10.88
2022-08-03T16:24:50.965Z,3.25
2022-08-03T16:29:53.941Z,1.58
2022-08-03T16:34:56.917Z,1.58
2022-08-03T16:40:37.003Z,2.38
2022-08-03T16:45:50.271Z,4.72
2022-08-03T16:51:09.831Z,6.18
2022-08-03T16:58:44.459Z,3.08
2022-08-03T17:02:51.713Z,3.00
2022-08-03T17:34:26.268Z,4.35
2022-08-03T17:58:01.513Z,2.38
2022-08-03T18:10:34.502Z,1.75
2022-08-03T18:29:27.273Z,8.70
2022-08-03T18:40:57.259Z,10.32
2022-08-03T18:46:05.304Z,3.65
2022-08-03T20:06:06.780Z,2.60
2022-08-03T20:11:19.921Z,3.35
2022-08-03T21:50:04.617Z,4.25
2022-08-03T21:56:06.672Z,7.75
2022-08-03T22:03:15.259Z,4.97
2022-08-03T22:08:51.241Z,4.30
2022-08-03T22:13:54.241Z,4.75
2022-08-03T22:18:57.221Z,3.47
2022-08-03T22:24:03.145Z,6.43
2022-08-03T22:29:09.234Z,7.60
2022-08-03T22:34:12.589Z,8.60
2022-08-03T22:39:25.597Z,3.83
2022-08-03T22:44:30.193Z,3.75
2022-08-03T22:49:37.081Z,4.03
2022-08-03T23:02:26.374Z,4.50
2022-08-03T23:14:31.776Z,5.65
2022-08-03T23:26:09.215Z,5.88
2022-08-03T23:31:39.497Z,7.63
2022-08-03T23:37:18.604Z,6.93
2022-08-03T23:49:09.243Z,8.20
2022-08-03T23:54:50.378Z,6.72
